sensor_id;sensor_type;location;lat;lon;timestamp;pressure;altitude;pressure_sealevel;temperature;humidity
47913;BME280;33676;51.006;17.180;2022-11-20T00:01:36;99934.72;;;-4.42;87.27
47913;BME280;33676;51.006;17.180;2022-11-20T00:04:04;99933.89;;;-4.43;87.37
47913;BME280;33676;51.006;17.180;2022-11-20T00:06:33;99938.52;;;-4.43;87.46
47913;BME280;33676;51.006;17.180;2022-11-20T00:09:01;99935.80;;;-4.44;87.34
47913;BME280;33676;51.006;17.180;2022-11-20T00:11:31;99932.60;;;-4.46;87.32
47913;BME280;33676;51.006;17.180;2022-11-20T00:14:01;99928.52;;;-4.47;87.39
47913;BME280;33676;51.006;17.180;2022-11-20T00:16:32;99929.23;;;-4.48;87.21
47913;BME280;33676;51.006;17.180;2022-11-20T00:19:01;99926.55;;;-4.50;87.23
47913;BME280;33676;51.006;17.180;2022-11-20T00:21:30;99926.08;;;-4.52;86.99
47913;BME280;33676;51.006;17.180;2022-11-20T00:23:58;99926.61;;;-4.53;87.18
47913;BME280;33676;51.006;17.180;2022-11-20T00:26:28;99921.19;;;-4.54;87.17
47913;BME280;33676;51.006;17.180;2022-11-20T00:28:59;99923.60;;;-4.55;87.17
47913;BME280;33676;51.006;17.180;2022-11-20T00:31:30;99929.42;;;-4.57;87.00
47913;BME280;33676;51.006;17.180;2022-11-20T00:33:58;99928.44;;;-4.58;87.11
47913;BME280;33676;51.006;17.180;2022-11-20T00:36:28;99921.48;;;-4.60;87.27
47913;BME280;33676;51.006;17.180;2022-11-20T00:38:59;99919.11;;;-4.60;87.39
47913;BME280;33676;51.006;17.180;2022-11-20T00:41:29;99919.63;;;-4.61;87.29
47913;BME280;33676;51.006;17.180;2022-11-20T00:43:57;99918.45;;;-4.61;87.42
47913;BME280;33676;51.006;17.180;2022-11-20T00:46:27;99922.89;;;-4.61;87.44
47913;BME280;33676;51.006;17.180;2022-11-20T00:48:56;99925.31;;;-4.63;87.45
47913;BME280;33676;51.006;17.180;2022-11-20T00:51:26;99925.84;;;-4.64;87.30
47913;BME280;33676;51.006;17.180;2022-11-20T00:53:57;99926.21;;;-4.66;87.28
47913;BME280;33676;51.006;17.180;2022-11-20T00:56:26;99933.21;;;-4.67;87.06
47913;BME280;33676;51.006;17.180;2022-11-20T00:58:54;99934.80;;;-4.68;87.38
47913;BME280;33676;51.006;17.180;2022-11-20T01:01:25;99936.87;;;-4.69;87.33
47913;BME280;33676;51.006;17.180;2022-11-20T01:03:57;99935.70;;;-4.70;87.37
47913;BME280;33676;51.006;17.180;2022-11-20T01:06:35;99936.39;;;-4.70;87.47
47913;BME280;33676;51.006;17.180;2022-11-20T01:09:10;99940.48;;;-4.71;87.03
47913;BME280;33676;51.006;17.180;2022-11-20T01:11:42;99944.30;;;-4.73;87.25
47913;BME280;33676;51.006;17.180;2022-11-20T01:14:17;99946.40;;;-4.76;86.94
47913;BME280;33676;51.006;17.180;2022-11-20T01:16:49;99947.86;;;-4.81;87.18
47913;BME280;33676;51.006;17.180;2022-11-20T01:19:22;99943.63;;;-4.82;87.09
47913;BME280;33676;51.006;17.180;2022-11-20T01:21:53;99941.45;;;-4.83;87.43
47913;BME280;33676;51.006;17.180;2022-11-20T01:24:22;99937.55;;;-4.84;87.25
47913;BME280;33676;51.006;17.180;2022-11-20T01:26:51;99934.16;;;-4.85;87.53
47913;BME280;33676;51.006;17.180;2022-11-20T01:29:23;99941.31;;;-4.85;87.51
47913;BME280;33676;51.006;17.180;2022-11-20T01:31:52;99938.08;;;-4.86;87.62
47913;BME280;33676;51.006;17.180;2022-11-20T01:34:22;99936.55;;;-4.86;87.52
47913;BME280;33676;51.006;17.180;2022-11-20T01:36:52;99931.44;;;-4.86;87.67
47913;BME280;33676;51.006;17.180;2022-11-20T01:39:25;99927.34;;;-4.85;87.89
47913;BME280;33676;51.006;17.180;2022-11-20T01:41:55;99930.08;;;-4.86;87.90
47913;BME280;33676;51.006;17.180;2022-11-20T01:44:52;99925.17;;;-4.88;88.14
47913;BME280;33676;51.006;17.180;2022-11-20T01:47:39;99925.03;;;-4.89;87.75
47913;BME280;33676;51.006;17.180;2022-11-20T01:50:23;99926.55;;;-4.89;87.92
47913;BME280;33676;51.006;17.180;2022-11-20T01:53:05;99927.95;;;-4.90;88.00
47913;BME280;33676;51.006;17.180;2022-11-20T01:55:49;99929.83;;;-4.90;88.12
47913;BME280;33676;51.006;17.180;2022-11-20T01:58:24;99929.15;;;-4.91;87.90
47913;BME280;33676;51.006;17.180;2022-11-20T02:00:55;99928.11;;;-4.90;87.94
47913;BME280;33676;51.006;17.180;2022-11-20T02:03:24;99925.91;;;-4.91;88.24
47913;BME280;33676;51.006;17.180;2022-11-20T02:06:31;99927.96;;;-4.91;88.13
47913;BME280;33676;51.006;17.180;2022-11-20T02:08:58;99931.73;;;-4.92;87.90
47913;BME280;33676;51.006;17.180;2022-11-20T02:11:26;99927.50;;;-4.93;88.12
47913;BME280;33676;51.006;17.180;2022-11-20T02:13:55;99926.00;;;-4.95;88.17
47913;BME280;33676;51.006;17.180;2022-11-20T02:16:31;99923.64;;;-4.96;87.84
47913;BME280;33676;51.006;17.180;2022-11-20T02:19:02;99920.08;;;-4.97;88.23
47913;BME280;33676;51.006;17.180;2022-11-20T02:22:12;99916.34;;;-4.98;88.15
47913;BME280;33676;51.006;17.180;2022-11-20T02:24:43;99910.91;;;-4.99;88.25
47913;BME280;33676;51.006;17.180;2022-11-20T02:27:15;99913.80;;;-4.99;88.21
47913;BME280;33676;51.006;17.180;2022-11-20T02:29:50;99912.13;;;-5.00;88.01
47913;BME280;33676;51.006;17.180;2022-11-20T02:32:26;99913.20;;;-5.03;88.15
47913;BME280;33676;51.006;17.180;2022-11-20T02:34:55;99917.13;;;-5.03;88.39
47913;BME280;33676;51.006;17.180;2022-11-20T02:37:32;99916.30;;;-5.04;88.43
47913;BME280;33676;51.006;17.180;2022-11-20T02:40:03;99911.89;;;-5.05;88.31
47913;BME280;33676;51.006;17.180;2022-11-20T02:42:31;99910.52;;;-5.05;88.40
47913;BME280;33676;51.006;17.180;2022-11-20T02:45:00;99913.23;;;-5.05;88.47
47913;BME280;33676;51.006;17.180;2022-11-20T02:47:28;99911.70;;;-5.04;88.67
47913;BME280;33676;51.006;17.180;2022-11-20T02:49:57;99914.90;;;-5.02;88.55
47913;BME280;33676;51.006;17.180;2022-11-20T02:52:25;99908.77;;;-5.02;88.77
47913;BME280;33676;51.006;17.180;2022-11-20T02:54:54;99915.21;;;-5.01;88.68
47913;BME280;33676;51.006;17.180;2022-11-20T02:57:22;99916.23;;;-5.01;88.67
47913;BME280;33676;51.006;17.180;2022-11-20T02:59:51;99911.14;;;-5.02;88.53
47913;BME280;33676;51.006;17.180;2022-11-20T03:02:19;99908.09;;;-5.03;88.57
47913;BME280;33676;51.006;17.180;2022-11-20T03:04:48;99908.42;;;-5.03;88.65
47913;BME280;33676;51.006;17.180;2022-11-20T03:07:17;99905.55;;;-5.04;88.64
47913;BME280;33676;51.006;17.180;2022-11-20T03:09:45;99905.23;;;-5.05;88.51
47913;BME280;33676;51.006;17.180;2022-11-20T03:12:14;99908.98;;;-5.04;88.31
47913;BME280;33676;51.006;17.180;2022-11-20T03:14:42;99915.79;;;-5.04;88.46
47913;BME280;33676;51.006;17.180;2022-11-20T03:17:10;99913.45;;;-5.06;88.24
47913;BME280;33676;51.006;17.180;2022-11-20T03:19:39;99912.14;;;-5.09;88.05
47913;BME280;33676;51.006;17.180;2022-11-20T03:22:07;99913.23;;;-5.12;87.86
47913;BME280;33676;51.006;17.180;2022-11-20T03:24:36;99912.42;;;-5.15;87.74
47913;BME280;33676;51.006;17.180;2022-11-20T03:27:04;99910.07;;;-5.16;87.84
47913;BME280;33676;51.006;17.180;2022-11-20T03:29:32;99910.46;;;-5.19;87.63
47913;BME280;33676;51.006;17.180;2022-11-20T03:32:00;99910.35;;;-5.21;87.63
47913;BME280;33676;51.006;17.180;2022-11-20T03:34:29;99911.58;;;-5.22;87.87
47913;BME280;33676;51.006;17.180;2022-11-20T03:36:57;99908.68;;;-5.23;87.92
47913;BME280;33676;51.006;17.180;2022-11-20T03:39:25;99905.14;;;-5.24;87.72
47913;BME280;33676;51.006;17.180;2022-11-20T03:41:54;99906.70;;;-5.25;87.80
47913;BME280;33676;51.006;17.180;2022-11-20T03:44:23;99907.90;;;-5.26;88.02
47913;BME280;33676;51.006;17.180;2022-11-20T03:46:51;99908.45;;;-5.27;87.92
47913;BME280;33676;51.006;17.180;2022-11-20T03:49:19;99911.02;;;-5.28;87.63
47913;BME280;33676;51.006;17.180;2022-11-20T03:51:48;99908.48;;;-5.29;87.82
47913;BME280;33676;51.006;17.180;2022-11-20T03:54:17;99907.81;;;-5.30;88.10
47913;BME280;33676;51.006;17.180;2022-11-20T03:56:45;99911.55;;;-5.30;88.09
47913;BME280;33676;51.006;17.180;2022-11-20T03:59:13;99908.15;;;-5.30;88.24
47913;BME280;33676;51.006;17.180;2022-11-20T04:01:42;99904.08;;;-5.31;88.21
47913;BME280;33676;51.006;17.180;2022-11-20T04:04:16;99900.01;;;-5.32;88.18
47913;BME280;33676;51.006;17.180;2022-11-20T04:06:45;99900.53;;;-5.33;88.10
47913;BME280;33676;51.006;17.180;2022-11-20T04:09:13;99904.80;;;-5.33;87.99
47913;BME280;33676;51.006;17.180;2022-11-20T04:11:42;99909.25;;;-5.35;87.82
47913;BME280;33676;51.006;17.180;2022-11-20T04:14:15;99912.67;;;-5.35;88.27
47913;BME280;33676;51.006;17.180;2022-11-20T04:16:43;99917.29;;;-5.36;87.99
47913;BME280;33676;51.006;17.180;2022-11-20T04:19:15;99914.58;;;-5.37;88.02
47913;BME280;33676;51.006;17.180;2022-11-20T04:21:44;99912.73;;;-5.38;88.32
47913;BME280;33676;51.006;17.180;2022-11-20T04:24:12;99912.24;;;-5.40;88.12
47913;BME280;33676;51.006;17.180;2022-11-20T04:26:41;99911.24;;;-5.41;88.53
47913;BME280;33676;51.006;17.180;2022-11-20T04:29:12;99914.84;;;-5.42;88.12
47913;BME280;33676;51.006;17.180;2022-11-20T04:31:40;99913.86;;;-5.44;88.29
47913;BME280;33676;51.006;17.180;2022-11-20T04:34:11;99919.68;;;-5.46;87.91
47913;BME280;33676;51.006;17.180;2022-11-20T04:36:39;99919.70;;;-5.47;87.98
47913;BME280;33676;51.006;17.180;2022-11-20T04:39:13;99914.98;;;-5.48;87.92
47913;BME280;33676;51.006;17.180;2022-11-20T04:41:43;99917.55;;;-5.50;88.00
47913;BME280;33676;51.006;17.180;2022-11-20T04:44:11;99911.80;;;-5.53;87.85
47913;BME280;33676;51.006;17.180;2022-11-20T04:46:41;99910.16;;;-5.56;87.89
47913;BME280;33676;51.006;17.180;2022-11-20T04:49:10;99906.61;;;-5.57;88.01
47913;BME280;33676;51.006;17.180;2022-11-20T04:51:39;99901.52;;;-5.58;88.20
47913;BME280;33676;51.006;17.180;2022-11-20T04:54:09;99902.88;;;-5.58;88.24
47913;BME280;33676;51.006;17.180;2022-11-20T04:56:38;99899.98;;;-5.58;88.15
47913;BME280;33676;51.006;17.180;2022-11-20T04:59:06;99899.98;;;-5.58;88.42
47913;BME280;33676;51.006;17.180;2022-11-20T05:01:35;99898.98;;;-5.59;88.37
47913;BME280;33676;51.006;17.180;2022-11-20T05:04:04;99893.55;;;-5.60;87.92
47913;BME280;33676;51.006;17.180;2022-11-20T05:06:33;99891.02;;;-5.61;88.22
47913;BME280;33676;51.006;17.180;2022-11-20T05:09:02;99892.23;;;-5.62;88.06
47913;BME280;33676;51.006;17.180;2022-11-20T05:11:31;99889.02;;;-5.63;88.09
47913;BME280;33676;51.006;17.180;2022-11-20T05:13:59;99889.54;;;-5.63;88.36
47913;BME280;33676;51.006;17.180;2022-11-20T05:16:28;99886.49;;;-5.65;88.06
47913;BME280;33676;51.006;17.180;2022-11-20T05:18:56;99882.44;;;-5.67;88.21
47913;BME280;33676;51.006;17.180;2022-11-20T05:21:25;99883.98;;;-5.68;88.15
47913;BME280;33676;51.006;17.180;2022-11-20T05:23:53;99881.80;;;-5.69;88.04
47913;BME280;33676;51.006;17.180;2022-11-20T05:26:22;99885.22;;;-5.70;88.06
47913;BME280;33676;51.006;17.180;2022-11-20T05:28:51;99890.34;;;-5.70;88.28
47913;BME280;33676;51.006;17.180;2022-11-20T05:31:23;99897.56;;;-5.74;87.91
47913;BME280;33676;51.006;17.180;2022-11-20T05:33:56;99901.45;;;-5.82;87.49
47913;BME280;33676;51.006;17.180;2022-11-20T05:36:25;99899.86;;;-5.87;87.44
47913;BME280;33676;51.006;17.180;2022-11-20T05:38:56;99896.05;;;-5.92;87.30
47913;BME280;33676;51.006;17.180;2022-11-20T05:41:29;99895.58;;;-5.95;87.52
47913;BME280;33676;51.006;17.180;2022-11-20T05:43:58;99888.98;;;-5.97;87.73
47913;BME280;33676;51.006;17.180;2022-11-20T05:46:27;99884.41;;;-5.98;87.72
47913;BME280;33676;51.006;17.180;2022-11-20T05:48:57;99877.61;;;-5.98;88.03
47913;BME280;33676;51.006;17.180;2022-11-20T05:51:26;99874.20;;;-5.98;87.77
47913;BME280;33676;51.006;17.180;2022-11-20T05:53:58;99872.69;;;-5.99;87.80
47913;BME280;33676;51.006;17.180;2022-11-20T05:56:27;99870.45;;;-5.97;88.13
47913;BME280;33676;51.006;17.180;2022-11-20T05:58:55;99870.43;;;-5.96;88.38
47913;BME280;33676;51.006;17.180;2022-11-20T06:01:25;99869.58;;;-5.96;88.32
47913;BME280;33676;51.006;17.180;2022-11-20T06:03:54;99865.83;;;-5.96;88.39
47913;BME280;33676;51.006;17.180;2022-11-20T06:06:22;99866.34;;;-5.95;88.44
47913;BME280;33676;51.006;17.180;2022-11-20T06:08:51;99864.30;;;-5.96;88.52
47913;BME280;33676;51.006;17.180;2022-11-20T06:11:19;99866.50;;;-5.96;88.65
47913;BME280;33676;51.006;17.180;2022-11-20T06:13:48;99868.69;;;-5.94;88.53
47913;BME280;33676;51.006;17.180;2022-11-20T06:16:19;99864.45;;;-5.94;88.59
47913;BME280;33676;51.006;17.180;2022-11-20T06:18:48;99863.92;;;-5.94;88.46
47913;BME280;33676;51.006;17.180;2022-11-20T06:21:19;99857.10;;;-5.93;88.56
47913;BME280;33676;51.006;17.180;2022-11-20T06:23:49;99854.19;;;-5.92;88.54
47913;BME280;33676;51.006;17.180;2022-11-20T06:26:21;99849.73;;;-5.91;88.50
47913;BME280;33676;51.006;17.180;2022-11-20T06:28:51;99846.34;;;-5.90;88.47
47913;BME280;33676;51.006;17.180;2022-11-20T06:31:23;99846.48;;;-5.89;88.42
47913;BME280;33676;51.006;17.180;2022-11-20T06:33:52;99844.06;;;-5.88;88.57
47913;BME280;33676;51.006;17.180;2022-11-20T06:36:22;99840.12;;;-5.87;88.62
47913;BME280;33676;51.006;17.180;2022-11-20T06:38:51;99838.06;;;-5.87;88.51
47913;BME280;33676;51.006;17.180;2022-11-20T06:41:21;99839.90;;;-5.85;88.78
47913;BME280;33676;51.006;17.180;2022-11-20T06:43:51;99841.92;;;-5.83;88.50
47913;BME280;33676;51.006;17.180;2022-11-20T06:46:20;99846.14;;;-5.81;88.45
47913;BME280;33676;51.006;17.180;2022-11-20T06:48:49;99854.77;;;-5.79;88.54
47913;BME280;33676;51.006;17.180;2022-11-20T06:51:18;99856.45;;;-5.78;88.58
47913;BME280;33676;51.006;17.180;2022-11-20T06:53:47;99855.89;;;-5.75;88.54
47913;BME280;33676;51.006;17.180;2022-11-20T06:56:15;99859.04;;;-5.71;88.84
47913;BME280;33676;51.006;17.180;2022-11-20T06:58:44;99859.28;;;-5.67;89.02
47913;BME280;33676;51.006;17.180;2022-11-20T07:01:14;99865.15;;;-5.62;89.26
47913;BME280;33676;51.006;17.180;2022-11-20T07:03:43;99866.42;;;-5.57;89.62
47913;BME280;33676;51.006;17.180;2022-11-20T07:06:12;99865.45;;;-5.51;89.77
47913;BME280;33676;51.006;17.180;2022-11-20T07:08:40;99865.34;;;-5.45;89.58
47913;BME280;33676;51.006;17.180;2022-11-20T07:11:11;99871.34;;;-5.38;90.04
47913;BME280;33676;51.006;17.180;2022-11-20T07:13:40;99866.77;;;-5.31;90.05
47913;BME280;33676;51.006;17.180;2022-11-20T07:16:08;99866.47;;;-5.24;90.42
47913;BME280;33676;51.006;17.180;2022-11-20T07:18:37;99862.35;;;-5.16;90.42
47913;BME280;33676;51.006;17.180;2022-11-20T07:21:09;99859.80;;;-5.08;90.50
47913;BME280;33676;51.006;17.180;2022-11-20T07:23:38;99856.90;;;-5.00;90.70
47913;BME280;33676;51.006;17.180;2022-11-20T07:26:11;99856.88;;;-4.91;91.00
47913;BME280;33676;51.006;17.180;2022-11-20T07:28:39;99853.89;;;-4.79;91.19
47913;BME280;33676;51.006;17.180;2022-11-20T07:31:07;99849.08;;;-4.70;91.21
47913;BME280;33676;51.006;17.180;2022-11-20T07:33:37;99846.09;;;-4.59;91.26
47913;BME280;33676;51.006;17.180;2022-11-20T07:36:06;99846.20;;;-4.49;91.32
47913;BME280;33676;51.006;17.180;2022-11-20T07:38:34;99846.29;;;-4.39;91.53
47913;BME280;33676;51.006;17.180;2022-11-20T07:41:03;99846.20;;;-4.28;91.25
47913;BME280;33676;51.006;17.180;2022-11-20T07:43:31;99843.38;;;-4.18;91.44
47913;BME280;33676;51.006;17.180;2022-11-20T07:46:06;99838.46;;;-4.06;91.73
47913;BME280;33676;51.006;17.180;2022-11-20T07:48:35;99839.20;;;-3.95;91.89
47913;BME280;33676;51.006;17.180;2022-11-20T07:51:03;99840.10;;;-3.83;91.64
47913;BME280;33676;51.006;17.180;2022-11-20T07:53:32;99837.94;;;-3.72;91.84
47913;BME280;33676;51.006;17.180;2022-11-20T07:56:02;99838.10;;;-3.60;91.84
47913;BME280;33676;51.006;17.180;2022-11-20T07:58:34;99832.84;;;-3.50;91.86
47913;BME280;33676;51.006;17.180;2022-11-20T08:01:05;99829.63;;;-3.39;91.71
47913;BME280;33676;51.006;17.180;2022-11-20T08:03:35;99830.48;;;-3.26;91.98
47913;BME280;33676;51.006;17.180;2022-11-20T08:06:06;99830.41;;;-3.13;91.95
47913;BME280;33676;51.006;17.180;2022-11-20T08:08:34;99830.54;;;-3.00;92.12
47913;BME280;33676;51.006;17.180;2022-11-20T08:11:09;99827.56;;;-2.86;92.07
47913;BME280;33676;51.006;17.180;2022-11-20T08:13:56;99820.98;;;-2.67;92.33
47913;BME280;33676;51.006;17.180;2022-11-20T08:16:42;99820.45;;;-2.46;92.58
47913;BME280;33676;51.006;17.180;2022-11-20T08:19:13;99814.33;;;-2.25;92.49
47913;BME280;33676;51.006;17.180;2022-11-20T08:21:43;99811.16;;;-2.04;92.56
47913;BME280;33676;51.006;17.180;2022-11-20T08:24:12;99810.41;;;-1.81;92.67
47913;BME280;33676;51.006;17.180;2022-11-20T08:26:40;99804.77;;;-1.58;92.50
47913;BME280;33676;51.006;17.180;2022-11-20T08:29:09;99810.40;;;-1.34;92.49
47913;BME280;33676;51.006;17.180;2022-11-20T08:31:37;99809.23;;;-1.12;92.20
47913;BME280;33676;51.006;17.180;2022-11-20T08:34:26;99806.32;;;-0.86;92.32
47913;BME280;33676;51.006;17.180;2022-11-20T08:36:54;99804.73;;;-0.63;92.12
47913;BME280;33676;51.006;17.180;2022-11-20T08:39:23;99806.55;;;-0.40;91.87
47913;BME280;33676;51.006;17.180;2022-11-20T08:41:51;99800.09;;;-0.17;91.80
47913;BME280;33676;51.006;17.180;2022-11-20T08:44:19;99800.91;;;0.08;91.72
47913;BME280;33676;51.006;17.180;2022-11-20T08:46:48;99796.70;;;0.34;91.64
47913;BME280;33676;51.006;17.180;2022-11-20T08:49:16;99801.20;;;0.60;91.40
47913;BME280;33676;51.006;17.180;2022-11-20T08:51:46;99798.84;;;0.82;91.03
47913;BME280;33676;51.006;17.180;2022-11-20T08:54:16;99802.01;;;1.06;90.67
47913;BME280;33676;51.006;17.180;2022-11-20T08:56:48;99803.29;;;1.30;90.35
47913;BME280;33676;51.006;17.180;2022-11-20T08:59:16;99802.08;;;1.52;89.84
47913;BME280;33676;51.006;17.180;2022-11-20T09:02:05;99799.28;;;1.77;89.77
47913;BME280;33676;51.006;17.180;2022-11-20T09:04:33;99801.23;;;2.00;89.67
47913;BME280;33676;51.006;17.180;2022-11-20T09:07:03;99804.51;;;2.20;89.40
47913;BME280;33676;51.006;17.180;2022-11-20T09:09:31;99803.10;;;2.34;88.46
47913;BME280;33676;51.006;17.180;2022-11-20T09:12:00;99796.77;;;2.49;88.09
47913;BME280;33676;51.006;17.180;2022-11-20T09:14:29;99792.75;;;2.66;87.95
47913;BME280;33676;51.006;17.180;2022-11-20T09:16:58;99792.77;;;2.85;87.99
47913;BME280;33676;51.006;17.180;2022-11-20T09:19:26;99790.38;;;3.04;87.38
47913;BME280;33676;51.006;17.180;2022-11-20T09:22:03;99782.65;;;3.24;86.90
47913;BME280;33676;51.006;17.180;2022-11-20T09:24:31;99781.30;;;3.39;86.69
47913;BME280;33676;51.006;17.180;2022-11-20T09:27:04;99785.98;;;3.57;86.40
47913;BME280;33676;51.006;17.180;2022-11-20T09:29:33;99783.10;;;3.77;86.15
47913;BME280;33676;51.006;17.180;2022-11-20T09:32:01;99779.56;;;3.96;86.30
47913;BME280;33676;51.006;17.180;2022-11-20T09:34:30;99776.48;;;4.05;85.12
47913;BME280;33676;51.006;17.180;2022-11-20T09:36:58;99773.99;;;3.99;84.28
47913;BME280;33676;51.006;17.180;2022-11-20T09:39:33;99771.92;;;3.99;84.07
47913;BME280;33676;51.006;17.180;2022-11-20T09:42:31;99768.77;;;4.06;84.18
47913;BME280;33676;51.006;17.180;2022-11-20T09:51:35;99755.61;;;4.41;83.71
47913;BME280;33676;51.006;17.180;2022-11-20T09:54:16;99746.64;;;4.59;83.83
47913;BME280;33676;51.006;17.180;2022-11-20T09:56:53;99742.15;;;4.78;83.42
47913;BME280;33676;51.006;17.180;2022-11-20T09:59:33;99743.27;;;4.91;82.78
47913;BME280;33676;51.006;17.180;2022-11-20T10:02:27;99743.64;;;4.99;82.47
47913;BME280;33676;51.006;17.180;2022-11-20T10:05:23;99742.61;;;5.10;82.22
47913;BME280;33676;51.006;17.180;2022-11-20T10:08:16;99748.34;;;5.22;81.77
47913;BME280;33676;51.006;17.180;2022-11-20T10:10:49;99751.79;;;5.28;81.43
47913;BME280;33676;51.006;17.180;2022-11-20T10:13:42;99746.81;;;5.38;81.39
47913;BME280;33676;51.006;17.180;2022-11-20T10:16:53;99748.19;;;5.44;80.71
47913;BME280;33676;51.006;17.180;2022-11-20T10:25:55;99729.20;;;5.71;80.32
47913;BME280;33676;51.006;17.180;2022-11-20T10:34:06;99725.68;;;6.11;79.87
47913;BME280;33676;51.006;17.180;2022-11-20T10:39:40;99709.41;;;6.29;79.31
47913;BME280;33676;51.006;17.180;2022-11-20T10:42:16;99699.50;;;6.27;78.50
47913;BME280;33676;51.006;17.180;2022-11-20T10:44:58;99695.48;;;6.28;78.60
47913;BME280;33676;51.006;17.180;2022-11-20T10:47:36;99694.03;;;6.39;78.67
47913;BME280;33676;51.006;17.180;2022-11-20T10:50:19;99697.59;;;6.55;79.03
47913;BME280;33676;51.006;17.180;2022-11-20T10:53:08;99697.16;;;6.73;78.83
47913;BME280;33676;51.006;17.180;2022-11-20T10:55:56;99693.20;;;6.84;78.21
47913;BME280;33676;51.006;17.180;2022-11-20T10:58:52;99692.53;;;6.96;78.34
47913;BME280;33676;51.006;17.180;2022-11-20T11:01:22;99692.78;;;7.02;77.53
47913;BME280;33676;51.006;17.180;2022-11-20T11:03:52;99692.14;;;7.04;77.34
47913;BME280;33676;51.006;17.180;2022-11-20T11:06:43;99686.61;;;7.06;76.75
47913;BME280;33676;51.006;17.180;2022-11-20T11:09:27;99687.21;;;7.07;76.69
47913;BME280;33676;51.006;17.180;2022-11-20T11:11:58;99685.48;;;7.12;76.64
47913;BME280;33676;51.006;17.180;2022-11-20T11:14:49;99684.09;;;7.12;76.13
47913;BME280;33676;51.006;17.180;2022-11-20T11:17:27;99674.25;;;7.08;75.44
47913;BME280;33676;51.006;17.180;2022-11-20T11:22:31;99664.38;;;7.03;75.20
47913;BME280;33676;51.006;17.180;2022-11-20T11:25:00;99664.80;;;7.02;75.19
47913;BME280;33676;51.006;17.180;2022-11-20T11:27:30;99660.83;;;6.97;74.82
47913;BME280;33676;51.006;17.180;2022-11-20T11:30:13;99668.21;;;6.93;74.76
47913;BME280;33676;51.006;17.180;2022-11-20T11:32:42;99669.17;;;6.87;74.37
47913;BME280;33676;51.006;17.180;2022-11-20T11:35:27;99666.10;;;6.79;74.05
47913;BME280;33676;51.006;17.180;2022-11-20T11:38:15;99662.02;;;6.74;74.04
47913;BME280;33676;51.006;17.180;2022-11-20T11:40:46;99658.55;;;6.71;74.08
47913;BME280;33676;51.006;17.180;2022-11-20T11:43:22;99656.90;;;6.65;73.99
47913;BME280;33676;51.006;17.180;2022-11-20T11:49:15;99649.64;;;6.38;73.33
47913;BME280;33676;51.006;17.180;2022-11-20T11:54:41;99644.77;;;6.11;73.06
47913;BME280;33676;51.006;17.180;2022-11-20T11:57:23;99638.15;;;6.07;73.15
47913;BME280;33676;51.006;17.180;2022-11-20T12:00:08;99627.72;;;6.07;73.29
47913;BME280;33676;51.006;17.180;2022-11-20T12:05:51;99618.13;;;5.88;72.80
47913;BME280;33676;51.006;17.180;2022-11-20T12:08:32;99617.06;;;5.68;72.61
47913;BME280;33676;51.006;17.180;2022-11-20T12:11:13;99619.33;;;5.55;72.77
47913;BME280;33676;51.006;17.180;2022-11-20T12:13:55;99618.05;;;5.41;72.67
47913;BME280;33676;51.006;17.180;2022-11-20T12:16:26;99611.90;;;5.23;72.54
47913;BME280;33676;51.006;17.180;2022-11-20T12:18:54;99612.27;;;5.16;72.73
47913;BME280;33676;51.006;17.180;2022-11-20T12:30:10;99617.83;;;4.81;73.05
47913;BME280;33676;51.006;17.180;2022-11-20T12:35:44;99611.55;;;4.55;73.02
47913;BME280;33676;51.006;17.180;2022-11-20T12:39:41;99610.09;;;4.48;73.17
47913;BME280;33676;51.006;17.180;2022-11-20T12:42:16;99614.50;;;4.36;73.27
47913;BME280;33676;51.006;17.180;2022-11-20T12:45:54;99613.66;;;4.30;73.45
47913;BME280;33676;51.006;17.180;2022-11-20T12:51:54;99605.13;;;4.15;73.91
47913;BME280;33676;51.006;17.180;2022-11-20T12:55:08;99596.77;;;4.08;74.45
47913;BME280;33676;51.006;17.180;2022-11-20T12:57:50;99596.15;;;4.04;74.69
47913;BME280;33676;51.006;17.180;2022-11-20T13:00:23;99596.09;;;4.02;74.85
47913;BME280;33676;51.006;17.180;2022-11-20T13:03:31;99594.74;;;4.02;74.98
47913;BME280;33676;51.006;17.180;2022-11-20T13:06:16;99592.61;;;3.99;74.92
47913;BME280;33676;51.006;17.180;2022-11-20T13:08:56;99595.45;;;3.98;75.21
47913;BME280;33676;51.006;17.180;2022-11-20T13:11:37;99592.54;;;3.97;75.25
47913;BME280;33676;51.006;17.180;2022-11-20T13:14:34;99586.92;;;3.96;75.49
47913;BME280;33676;51.006;17.180;2022-11-20T13:17:19;99583.05;;;3.94;75.66
47913;BME280;33676;51.006;17.180;2022-11-20T13:19:54;99576.52;;;3.91;75.40
47913;BME280;33676;51.006;17.180;2022-11-20T13:22:43;99572.23;;;3.88;75.55
47913;BME280;33676;51.006;17.180;2022-11-20T13:25:44;99562.71;;;3.85;75.64
47913;BME280;33676;51.006;17.180;2022-11-20T13:30:54;99555.04;;;3.83;75.85
47913;BME280;33676;51.006;17.180;2022-11-20T13:33:29;99551.04;;;3.81;75.58
47913;BME280;33676;51.006;17.180;2022-11-20T13:36:06;99546.92;;;3.80;75.94
47913;BME280;33676;51.006;17.180;2022-11-20T13:38:46;99544.58;;;3.79;76.02
47913;BME280;33676;51.006;17.180;2022-11-20T13:41:27;99541.29;;;3.77;76.20
47913;BME280;33676;51.006;17.180;2022-11-20T13:44:13;99540.03;;;3.74;76.19
47913;BME280;33676;51.006;17.180;2022-11-20T13:46:45;99542.16;;;3.71;76.42
47913;BME280;33676;51.006;17.180;2022-11-20T13:49:32;99538.04;;;3.68;76.59
47913;BME280;33676;51.006;17.180;2022-11-20T13:52:26;99532.52;;;3.59;76.66
47913;BME280;33676;51.006;17.180;2022-11-20T13:55:20;99528.89;;;3.48;76.66
47913;BME280;33676;51.006;17.180;2022-11-20T13:58:20;99523.98;;;3.41;77.06
47913;BME280;33676;51.006;17.180;2022-11-20T14:01:11;99524.29;;;3.36;76.94
47913;BME280;33676;51.006;17.180;2022-11-20T14:03:43;99520.55;;;3.26;76.96
47913;BME280;33676;51.006;17.180;2022-11-20T14:06:38;99526.27;;;3.17;77.12
47913;BME280;33676;51.006;17.180;2022-11-20T14:09:27;99524.19;;;3.12;77.17
47913;BME280;33676;51.006;17.180;2022-11-20T14:11:56;99521.55;;;3.07;77.38
47913;BME280;33676;51.006;17.180;2022-11-20T14:14:30;99520.95;;;2.99;77.35
47913;BME280;33676;51.006;17.180;2022-11-20T14:17:08;99522.71;;;2.93;77.49
47913;BME280;33676;51.006;17.180;2022-11-20T14:19:38;99523.08;;;2.86;77.33